createdAt,value
2023-05-08T19:28:18.660Z,999.90
2023-05-08T19:29:19.019Z,5.70
2023-05-08T19:30:19.897Z,3.30
2023-05-08T19:31:20.793Z,3.20
2023-05-08T19:32:21.674Z,3.00
2023-05-08T19:33:22.570Z,3.20
2023-05-08T19:34:23.492Z,2.90
2023-05-08T19:35:24.329Z,2.90
2023-05-08T19:36:25.193Z,3.00
2023-05-08T19:37:26.077Z,3.30
2023-05-08T19:38:30.183Z,4.80
2023-05-08T19:39:27.518Z,30.90
2023-05-08T19:40:28.370Z,999.90
2023-05-08T19:41:29.257Z,999.90
2023-05-08T19:42:30.100Z,999.90
2023-05-08T19:43:31.119Z,999.90
2023-05-08T19:44:31.941Z,999.90
2023-05-08T19:45:32.806Z,999.90
2023-05-08T19:46:33.753Z,999.90
2023-05-08T19:47:34.636Z,999.90
2023-05-08T19:48:35.504Z,3.20
2023-05-08T19:49:36.391Z,3.30
2023-05-08T19:50:37.255Z,3.20
2023-05-08T19:51:38.142Z,3.80
2023-05-08T19:52:39.022Z,3.00
2023-05-08T19:53:39.924Z,3.10
2023-05-08T19:54:40.839Z,3.20
2023-05-08T19:55:41.675Z,3.20
2023-05-08T19:56:42.559Z,3.60
2023-05-08T19:57:43.424Z,3.00
2023-05-08T19:58:44.400Z,3.20
2023-05-08T19:59:45.230Z,3.30
2023-05-08T20:00:50.822Z,3.30
2023-05-08T20:01:47.878Z,3.50
2023-05-08T20:02:47.803Z,3.40
2023-05-08T20:03:48.783Z,3.50
2023-05-08T20:05:14.321Z,3.40
2023-05-08T20:05:50.964Z,3.80
2023-05-08T20:06:50.818Z,4.10
2023-05-08T20:07:51.702Z,3.80
2023-05-08T20:08:52.580Z,3.90
2023-05-08T20:09:53.451Z,4.20
2023-05-08T20:10:54.373Z,4.10
2023-05-08T20:11:55.228Z,4.20
2023-05-08T20:12:56.120Z,4.30
2023-05-08T20:13:57.065Z,4.30
2023-05-08T20:14:57.524Z,4.70
2023-05-08T20:15:58.474Z,4.20
2023-05-08T20:16:59.322Z,4.50
2023-05-08T20:18:00.258Z,4.70
2023-05-08T20:19:01.149Z,4.70
2023-05-08T20:20:02.028Z,4.90
2023-05-08T20:21:02.961Z,4.80
2023-05-08T20:22:03.799Z,5.10
2023-05-08T20:23:04.674Z,4.90
2023-05-08T20:24:05.548Z,5.00
2023-05-08T20:25:06.503Z,4.70
2023-05-08T20:26:07.374Z,4.70
2023-05-08T20:27:08.254Z,5.00
2023-05-08T20:28:09.124Z,4.70
2023-05-08T20:29:10.135Z,4.90
2023-05-08T20:30:11.069Z,5.80
2023-05-08T20:31:11.572Z,5.20
2023-05-08T20:32:12.558Z,4.90
2023-05-08T20:33:13.028Z,5.00
2023-05-08T20:34:13.964Z,5.80
2023-05-08T20:35:15.155Z,5.20
2023-05-08T20:36:15.581Z,5.60
2023-05-08T20:37:16.486Z,5.60
2023-05-08T20:38:17.366Z,6.20
2023-05-08T20:39:18.245Z,5.70
2023-05-08T20:40:19.105Z,5.80
2023-05-08T20:41:19.985Z,6.80
2023-05-08T20:42:20.844Z,7.90
2023-05-08T20:43:21.725Z,6.60
2023-05-08T20:44:22.752Z,6.30
2023-05-08T20:45:23.593Z,6.30
2023-05-08T20:46:24.549Z,6.20
2023-05-08T20:47:24.986Z,6.30
2023-05-08T20:48:25.848Z,6.60
2023-05-08T20:49:26.723Z,6.90
2023-05-08T20:50:27.602Z,6.30
2023-05-08T20:51:28.489Z,6.30
2023-05-08T20:52:29.372Z,6.10
2023-05-08T20:53:30.223Z,6.40
2023-05-08T20:54:31.092Z,6.30
2023-05-08T20:55:32.008Z,6.80
2023-05-08T20:56:32.860Z,6.20
2023-05-08T20:57:33.737Z,6.50
2023-05-08T20:58:34.603Z,6.10
2023-05-08T20:59:35.603Z,6.50
2023-05-08T21:00:36.445Z,6.60
2023-05-08T21:01:37.388Z,6.80
2023-05-08T21:02:38.072Z,6.60
2023-05-08T21:03:38.926Z,6.70
2023-05-08T21:04:39.853Z,7.00
2023-05-08T21:05:40.747Z,6.40
2023-05-08T21:06:41.614Z,6.80
2023-05-08T21:07:42.497Z,7.20
2023-05-08T21:08:43.393Z,6.80
2023-05-08T21:09:44.258Z,6.80
2023-05-08T21:10:45.168Z,6.80
2023-05-08T21:11:46.041Z,7.30
2023-05-08T21:12:46.954Z,7.30
2023-05-08T21:13:47.791Z,7.70
2023-05-08T21:14:48.776Z,6.80
2023-05-08T21:15:49.609Z,7.00
2023-05-08T21:16:50.586Z,6.90
2023-05-08T21:17:51.001Z,7.30
2023-05-08T21:18:51.860Z,7.90
2023-05-08T21:19:52.728Z,7.60
2023-05-08T21:20:53.613Z,7.70
2023-05-08T21:21:54.500Z,7.60
2023-05-08T21:22:55.361Z,7.60
2023-05-08T21:23:56.247Z,7.60
2023-05-08T21:24:57.144Z,7.90
2023-05-08T21:25:57.994Z,8.00
2023-05-08T21:26:58.869Z,7.90
2023-05-08T21:27:59.722Z,8.10
2023-05-08T21:29:00.619Z,7.80
2023-05-08T21:30:01.582Z,8.50
2023-05-08T21:31:02.434Z,8.10
2023-05-08T21:32:03.350Z,8.10
2023-05-08T21:33:04.207Z,8.50
2023-05-08T21:34:05.070Z,7.90
2023-05-08T21:35:06.001Z,8.30
2023-05-08T21:36:06.855Z,8.20
2023-05-08T21:37:07.716Z,8.30
2023-05-08T21:38:08.603Z,8.40
2023-05-08T21:39:09.451Z,8.90
2023-05-08T21:40:10.377Z,8.50
2023-05-08T21:41:11.231Z,8.30
2023-05-08T21:42:12.106Z,8.30
2023-05-08T21:43:12.975Z,8.10
2023-05-08T21:44:13.849Z,8.20
2023-05-08T21:45:15.081Z,8.60
2023-05-08T21:46:15.595Z,8.50
2023-05-08T21:47:16.463Z,8.50
2023-05-08T21:48:17.334Z,8.60
2023-05-08T21:49:18.192Z,8.70
2023-05-08T21:50:19.070Z,8.80
2023-05-08T21:51:19.933Z,8.60
2023-05-08T21:52:20.804Z,8.80
2023-05-08T21:53:21.675Z,9.10
2023-05-08T21:54:22.546Z,8.70
2023-05-08T21:55:23.430Z,9.00
2023-05-08T21:56:24.307Z,8.70
2023-05-08T21:57:25.184Z,8.60
2023-05-08T21:58:26.049Z,9.00
2023-05-08T21:59:26.921Z,8.60
2023-05-08T22:00:27.940Z,8.50
2023-05-08T22:01:28.864Z,8.40
2023-05-08T22:02:29.786Z,8.50
2023-05-08T22:03:30.812Z,8.00
2023-05-08T22:04:31.173Z,8.00
2023-05-08T22:05:32.056Z,8.20
2023-05-08T22:06:32.919Z,7.90
2023-05-08T22:07:33.809Z,7.90
2023-05-08T22:08:34.682Z,7.90
2023-05-08T22:09:35.555Z,7.60
2023-05-08T22:10:36.411Z,7.40
2023-05-08T22:11:37.315Z,8.00
2023-05-08T22:12:38.179Z,7.90
2023-05-08T22:13:39.035Z,8.30
2023-05-08T22:14:39.902Z,8.40
2023-05-08T22:15:40.885Z,8.20
2023-05-08T22:16:41.737Z,8.10
2023-05-08T22:17:42.643Z,8.50
2023-05-08T22:18:43.485Z,8.30
2023-05-08T22:19:44.372Z,8.40
2023-05-08T22:20:45.285Z,8.20
2023-05-08T22:21:46.150Z,8.90
2023-05-08T22:22:47.035Z,8.90
2023-05-08T22:23:47.905Z,8.80
2023-05-08T22:24:48.776Z,8.10
2023-05-08T22:25:49.635Z,8.60
2023-05-08T22:26:50.509Z,8.30
2023-05-08T22:27:51.414Z,8.10
2023-05-08T22:28:52.271Z,9.00
2023-05-08T22:29:53.171Z,8.20
2023-05-08T22:30:54.133Z,9.30
2023-05-08T22:31:54.981Z,9.20
2023-05-08T22:32:56.059Z,9.30
2023-05-08T22:33:56.412Z,8.80
2023-05-08T22:34:57.297Z,8.80
2023-05-08T22:35:58.161Z,9.30
2023-05-08T22:36:59.054Z,9.40
2023-05-08T22:37:59.948Z,8.80
2023-05-08T22:39:00.789Z,9.20
2023-05-08T22:40:01.661Z,9.10
2023-05-08T22:41:02.535Z,9.50
2023-05-08T22:42:03.407Z,9.70
2023-05-08T22:43:04.277Z,9.40
2023-05-08T22:44:05.187Z,9.70
2023-05-08T22:45:06.111Z,9.40
2023-05-08T22:46:07.154Z,9.00
2023-05-08T22:47:07.644Z,9.60
2023-05-08T22:48:08.561Z,9.80
2023-05-08T22:49:09.478Z,9.80
2023-05-08T22:50:10.316Z,9.50
2023-05-08T22:51:11.213Z,9.90
2023-05-08T22:52:12.076Z,9.60
2023-05-08T22:53:12.970Z,9.40
2023-05-08T22:54:13.952Z,9.80
2023-05-08T22:55:15.027Z,10.10
2023-05-08T22:56:15.634Z,10.20
2023-05-08T22:57:16.178Z,9.60
2023-05-08T22:58:16.715Z,10.10
2023-05-08T22:59:17.612Z,9.90
2023-05-08T23:00:18.477Z,9.50
2023-05-08T23:01:19.484Z,9.80
2023-05-08T23:02:19.863Z,9.50
2023-05-08T23:03:20.729Z,9.80
2023-05-08T23:04:21.688Z,10.30
2023-05-08T23:05:22.545Z,10.00
2023-05-08T23:06:23.413Z,9.90
2023-05-08T23:07:24.290Z,9.90
2023-05-08T23:08:25.166Z,10.10
2023-05-08T23:09:26.038Z,9.40
2023-05-08T23:10:26.934Z,9.90
2023-05-08T23:11:27.798Z,10.50
2023-05-08T23:12:28.668Z,10.20
2023-05-08T23:13:29.595Z,10.20
2023-05-08T23:14:30.449Z,10.20
2023-05-08T23:15:31.327Z,10.50
2023-05-08T23:16:32.376Z,10.40
2023-05-08T23:17:32.769Z,10.80
2023-05-08T23:18:33.614Z,10.30
2023-05-08T23:19:34.481Z,10.50
2023-05-08T23:20:35.395Z,10.30
2023-05-08T23:21:36.233Z,10.20
2023-05-08T23:22:37.113Z,10.40
2023-05-08T23:23:37.969Z,10.50
2023-05-08T23:24:38.846Z,10.00
2023-05-08T23:25:39.727Z,9.70
2023-05-08T23:26:42.051Z,10.10
2023-05-08T23:27:41.549Z,10.20
2023-05-08T23:28:42.405Z,10.10
2023-05-08T23:29:43.278Z,10.20
2023-05-08T23:30:44.172Z,10.70
2023-05-08T23:31:45.305Z,11.00
2023-05-08T23:32:45.690Z,10.30
2023-05-08T23:33:46.553Z,10.20
2023-05-08T23:34:47.439Z,10.50
2023-05-08T23:35:48.323Z,10.40
2023-05-08T23:36:49.213Z,10.50
2023-05-08T23:37:50.065Z,9.90
2023-05-08T23:38:50.920Z,10.30
2023-05-08T23:39:51.796Z,10.00
2023-05-08T23:40:52.686Z,10.10
2023-05-08T23:41:53.553Z,10.20
2023-05-08T23:42:54.412Z,10.70
2023-05-08T23:43:55.281Z,11.20
2023-05-08T23:44:56.146Z,10.50
2023-05-08T23:45:57.056Z,10.50
2023-05-08T23:46:58.081Z,10.20
2023-05-08T23:47:58.948Z,10.20
2023-05-08T23:48:59.800Z,10.30
2023-05-08T23:50:00.675Z,10.20
2023-05-08T23:51:01.552Z,10.70
2023-05-08T23:52:02.436Z,10.80
2023-05-08T23:53:03.377Z,10.70
2023-05-08T23:54:04.236Z,10.60
2023-05-08T23:55:05.104Z,10.70
2023-05-08T23:56:06.001Z,10.70
2023-05-08T23:57:06.887Z,10.50
2023-05-08T23:58:07.740Z,10.50
2023-05-08T23:59:08.608Z,10.50
